16 sierpnia 2022

Czas Kod Pogoda Temp. Widoczność Sufit Wiatr METAR/SPECI
2:00 am
V
50 °F 9 mi - 330° 330° 6 kt METAR CYBW 160800Z AUTO 33006KT 9SM CLR 10/09 A3010 RMK SLP188 DENSITY ALT 4100FT
1:00 am
V
54 °F 9 mi - 300° 300° 2 kt METAR CYBW 160700Z AUTO 30002KT 9SM CLR 12/09 A3010 RMK SLP187 DENSITY ALT 4300FT
12:00 am
V
55 °F 9 mi - Var Var 2 kt METAR CYBW 160600Z AUTO VRB02KT 9SM CLR 13/08 A3010 RMK SLP186 DENSITY ALT 4400FT

15 sierpnia 2022

Czas Kod Pogoda Temp. Widoczność Sufit Wiatr METAR/SPECI
11:00 pm
V
57 °F 9 mi - 290° 290° 2 kt METAR CYBW 160500Z AUTO 29002KT 9SM CLR 14/10 A3010 RMK SLP186 DENSITY ALT 4600FT
10:00 pm
V
57 °F 9 mi - 290° 290° 3 kt METAR CYBW 160400Z AUTO 29003KT 9SM CLR 14/09 A3010 RMK SLP192 DENSITY ALT 4600FT
9:00 pm
V
66 °F 9 mi - 080° 080° 2 kt METAR CYBW 160300Z AUTO 08002KT 9SM CLR 19/10 A3008 RMK SLP186 DENSITY ALT 5100FT
8:00 pm
V
72 °F 9 mi - 060° 060° 7 kt METAR CYBW 160200Z AUTO 06007KT 9SM SCT150 22/10 A3008 RMK SLP183 DENSITY ALT 5500FT
7:00 pm
V
75 °F 9 mi 22.000 ft 030° 030° 11 kt METAR CYBW 160100Z AUTO 03011KT 9SM SCT150 SCT200 BKN220 24/09 A3008 RMK SLP184 DENSITY ALT 5700FT
6:00 pm
V
77 °F 9 mi 14.000 ft 050° 050° 7 kt METAR CYBW 160000Z AUTO 05007KT 030V100 9SM BKN140 BKN160 25/09 A3007 RMK SLP179 DENSITY ALT 5800FT
5:00 pm
V
79 °F 9 mi - 070° 070° 7 kt METAR CYBW 152300Z AUTO 07007KT 030V100 9SM CLR 26/09 A3006 RMK SLP174 DENSITY ALT 6000FT
4:00 pm
V
79 °F 9 mi 21.000 ft 070° 070° 9 kt METAR CYBW 152200Z AUTO 07009KT 020V090 9SM SCT180 BKN210 26/09 A3007 RMK SLP176 DENSITY ALT 5900FT
3:00 pm
V
77 °F 9 mi 19.000 ft 040° 040° 10 kt METAR CYBW 152100Z AUTO 04010KT 020V120 9SM BKN190 BKN210 25/09 A3008 RMK SLP179 DENSITY ALT 5900FT
2:00 pm
V
77 °F 9 mi - 040° 040° 8 kt METAR CYBW 152000Z AUTO 04008KT 010V090 9SM CLR 25/10 A3008 RMK SLP177 DENSITY ALT 5900FT
1:00 pm
V
75 °F 9 mi - 030° 030° 8 kt METAR CYBW 151900Z AUTO 03008KT 320V040 9SM FEW220 24/10 A3009 RMK SLP180 DENSITY ALT 5700FT
12:00 pm
V
73 °F 9 mi - 350° 350° 6 kt METAR CYBW 151800Z AUTO 35006KT 300V030 9SM FEW210 23/09 A3009 RMK SLP183 DENSITY ALT 5600FT
11:00 am
V
72 °F 9 mi - 310° 310° 7 kt METAR CYBW 151700Z AUTO 31007KT 9SM CLR 22/10 A3010 RMK SLP183 DENSITY ALT 5400FT
10:00 am
V
66 °F 9 mi - 330° 330° 9 kt METAR CYBW 151600Z AUTO 33009KT 9SM SCT130 19/09 A3010 RMK SLP187 DENSITY ALT 5100FT
9:00 am
V
57 °F 9 mi - 330° 330° 8 kt METAR CYBW 151500Z AUTO 33008KT 9SM CLR 14/09 A3011 RMK SLP193 DENSITY ALT 4600FT
8:00 am
V
52 °F 9 mi - 320° 320° 8 kt METAR CYBW 151400Z AUTO 32008KT 9SM CLR 11/09 A3011 RMK SLP190 DENSITY ALT 4200FT
7:00 am
V
48 °F 9 mi - 320° 320° 5 kt METAR CYBW 151300Z AUTO 32005KT 9SM CLR 09/08 A3011 RMK SLP191 DENSITY ALT 4000FT
6:00 am
V
48 °F 9 mi - 320° 320° 5 kt METAR CYBW 151200Z AUTO 32005KT 9SM CLR 09/08 A3011 RMK SLP190 DENSITY ALT 4000FT
5:00 am
V
50 °F 9 mi - 320° 320° 7 kt METAR CYBW 151100Z AUTO 32007KT 9SM CLR 10/09 A3011 RMK SLP187 DENSITY ALT 4100FT
4:00 am
V
50 °F 9 mi - 320° 320° 7 kt METAR CYBW 151000Z AUTO 32007KT 9SM SCT110 10/09 A3011 RMK SLP189 DENSITY ALT 4100FT
3:00 am
V
52 °F 9 mi 12.000 ft 310° 310° 6 kt METAR CYBW 150900Z AUTO 31006KT 9SM FEW076 SCT089 BKN120 11/09 A3010 RMK SLP187 DENSITY ALT 4200FT
2:00 am
V
55 °F 9 mi - 310° 310° 8 kt METAR CYBW 150800Z AUTO 31008KT 9SM CLR 13/10 A3011 RMK SLP187 DENSITY ALT 4400FT
1:00 am
V
57 °F 9 mi - 310° 310° 7 kt METAR CYBW 150700Z AUTO 31007KT 300V010 9SM CLR 14/10 A3010 RMK SLP185 DENSITY ALT 4500FT
12:00 am
V
57 °F 9 mi - 330° 330° 5 kt METAR CYBW 150600Z AUTO 33005KT 9SM SCT170 14/11 A3008 RMK SLP180 DENSITY ALT 4600FT

14 sierpnia 2022

Czas Kod Pogoda Temp. Widoczność Sufit Wiatr METAR/SPECI
11:00 pm
V
61 °F 9 mi - 330° 330° 10 kt METAR CYBW 150500Z AUTO 33010KT 9SM FEW200 SCT220 16/09 A3007 RMK SLP174 DENSITY ALT 4800FT
10:00 pm
V
63 °F 9 mi - 120° 120° 9 kt METAR CYBW 150400Z AUTO 12009KT 9SM CLR 17/07 A3005 RMK SLP169 DENSITY ALT 5000FT
9:00 pm
V
68 °F 9 mi 12.000 ft 170° 170° 3 kt METAR CYBW 150300Z AUTO 17003KT 120V180 9SM BKN120 20/09 A3003 RMK SLP167 DENSITY ALT 5300FT
8:00 pm
V
77 °F 9 mi - 140° 140° 8 kt METAR CYBW 150200Z AUTO 14008KT 9SM SCT130 25/07 A3002 RMK SLP160 DENSITY ALT 5900FT
7:00 pm
V
81 °F 9 mi - 140° 140° 8 kt METAR CYBW 150100Z AUTO 14008KT 9SM FEW130 27/07 A3002 RMK SLP161 DENSITY ALT 6100FT
6:00 pm
V
81 °F 9 mi - 130° 130° 8 - 15 kt METAR CYBW 150000Z AUTO 13008G15KT 9SM CLR 27/07 A3002 RMK SLP161 DENSITY ALT 6100FT
5:00 pm
V
82 °F 9 mi - 150° 150° 14 kt METAR CYBW 142300Z AUTO 15014KT 110V170 9SM CLR 28/07 A3003 RMK SLP159 DENSITY ALT 6200FT
4:00 pm
V
81 °F 9 mi - 160° 160° 10 - 15 kt METAR CYBW 142200Z AUTO 16010G15KT 120V180 9SM CLR 27/07 A3004 RMK SLP158 DENSITY ALT 6100FT
3:00 pm
V
79 °F 9 mi - 140° 140° 9 - 15 kt METAR CYBW 142100Z AUTO 14009G15KT 120V190 9SM CLR 26/07 A3005 RMK SLP171 DENSITY ALT 6000FT
2:00 pm
V
77 °F 9 mi - 130° 130° 11 - 19 kt METAR CYBW 142000Z AUTO 13011G19KT 9SM CLR 25/08 A3007 RMK SLP179 DENSITY ALT 5800FT
1:00 pm
V
75 °F 9 mi - 110° 110° 10 - 16 kt METAR CYBW 141900Z AUTO 11010G16KT 9SM CLR 24/08 A3008 RMK SLP182 DENSITY ALT 5700FT
12:00 pm
V
73 °F 9 mi - 120° 120° 8 kt METAR CYBW 141800Z AUTO 12008KT 9SM CLR 23/08 A3010 RMK SLP186 DENSITY ALT 5500FT
11:00 am
V
70 °F 9 mi - 120° 120° 6 kt METAR CYBW 141700Z AUTO 12006KT 050V170 9SM CLR 21/08 A3010 RMK SLP193 DENSITY ALT 5300FT
10:00 am
V
64 °F 9 mi - 190° 190° 3 kt METAR CYBW 141600Z AUTO 19003KT 060V220 9SM CLR 18/09 A3011 RMK SLP194 DENSITY ALT 5000FT
9:00 am
V
57 °F 9 mi - 300° 300° 3 kt METAR CYBW 141500Z AUTO 30003KT 280V350 9SM CLR 14/09 A3011 RMK SLP195 DENSITY ALT 4500FT
8:00 am
V
52 °F 9 mi - 330° 330° 5 kt METAR CYBW 141400Z AUTO 33005KT 9SM CLR 11/08 A3010 RMK SLP190 DENSITY ALT 4300FT
7:00 am
V
46 °F 9 mi - 250° 250° 6 kt METAR CYBW 141300Z AUTO 25006KT 9SM CLR 08/06 A3011 RMK SLP193
6:00 am
V
45 °F 9 mi - 240° 240° 4 kt METAR CYBW 141200Z AUTO 24004KT 220V300 9SM SCT240 07/05 A3010 RMK SLP189
5:00 am
V
50 °F 9 mi - 250° 250° 3 kt METAR CYBW 141100Z AUTO 25003KT 240V350 9SM CLR 10/06 A3009 RMK SLP179 DENSITY ALT 4100FT
4:00 am
V
55 °F 9 mi - 020° 020° 8 kt METAR CYBW 141000Z AUTO 02008KT 9SM CLR 13/07 A3008 RMK SLP173 DENSITY ALT 4500FT
3:00 am
V
50 °F 9 mi - 310° 310° 5 kt METAR CYBW 140900Z AUTO 31005KT 9SM CLR 10/08 A3006 RMK SLP175 DENSITY ALT 4200FT
Starsze dane

My i osoby trzecie śledzimy twoje zachowanie w internecie na naszej stronie za pomocą plików cookie. Jeśli kontynuujesz, zakładamy, że zgadzasz się z naszą polityką plików cookie. Dowiedz się więcej